Time;durP1;ratioP1;P1;durP2;ratioP2;P2;SDS_P1;SDS_P2;PMS_P1;PMS_P2;Temp;Humidity;BMP_temperature;BMP_pressure;BME280_temperature;BME280_humidity;BME280_pressure;Samples;Min_cycle;Max_cycle;Signal;HPM_P1;HPM_P2
2023/02/28 00:00:09;;;;;;;4.23;2.80;;;;;;;-1.51;69.61;150987.53;5023490;28;20485;-76
2023/02/28 00:02:37;;;;;;;2.53;2.00;;;;;;;-1.54;69.58;150979.88;5024282;28;20480;-76
2023/02/28 00:05:04;;;;;;;3.17;2.50;;;;;;;-1.58;70.22;150969.59;5046612;28;20450;-77
2023/02/28 00:07:31;;;;;;;4.30;2.93;;;;;;;-1.56;70.65;150974.72;5016620;28;20555;-76
2023/02/28 00:09:57;;;;;;;3.20;2.90;;;;;;;-1.61;70.57;150961.91;5020626;28;20452;-76
2023/02/28 00:12:26;;;;;;;4.10;2.83;;;;;;;-1.62;70.63;150959.38;5032072;28;20450;-77
2023/02/28 00:14:52;;;;;;;3.50;2.70;;;;;;;-1.62;70.71;150959.38;5036352;28;20440;-76
2023/02/28 00:17:20;;;;;;;3.70;2.63;;;;;;;-1.59;71.23;150967.03;5032114;28;20543;-76
2023/02/28 00:19:48;;;;;;;2.70;2.30;;;;;;;-1.60;70.82;150963.19;5022642;28;20458;-76
2023/02/28 00:22:15;;;;;;;6.43;2.73;;;;;;;-1.62;71.00;150959.38;5025209;28;20444;-76
2023/02/28 00:24:42;;;;;;;5.57;3.17;;;;;;;-1.72;71.10;150933.72;5028482;28;20459;-76
2023/02/28 00:27:08;;;;;;;4.07;2.90;;;;;;;-1.79;71.80;150915.78;5032099;28;20538;-76
2023/02/28 00:29:37;;;;;;;4.20;2.90;;;;;;;-1.71;72.30;150935.00;5046197;28;21007;-76
2023/02/28 00:32:04;;;;;;;3.60;2.83;;;;;;;-1.74;72.01;150928.59;5042222;28;20451;-76
2023/02/28 00:34:37;;;;;;;3.60;3.30;;;;;;;-1.76;72.15;150923.47;5013098;28;20463;-76
2023/02/28 00:37:05;;;;;;;2.90;2.27;;;;;;;-1.80;72.04;150913.22;5046607;28;20975;-76
2023/02/28 00:39:34;;;;;;;2.37;2.00;;;;;;;-1.92;72.66;150882.50;5044130;28;20449;-76
2023/02/28 00:42:01;;;;;;;4.30;3.30;;;;;;;-1.91;72.40;150885.06;5022789;28;20549;-76
2023/02/28 00:44:28;;;;;;;3.93;2.67;;;;;;;-1.91;72.48;150886.31;5062714;28;20435;-76
2023/02/28 00:46:57;;;;;;;3.30;2.70;;;;;;;-1.90;72.77;150887.59;5014013;28;20871;-76
2023/02/28 00:49:25;;;;;;;4.37;3.27;;;;;;;-1.89;72.60;150891.47;5009421;28;20447;-76
2023/02/28 00:51:52;;;;;;;3.43;2.80;;;;;;;-1.95;72.75;150876.09;5009921;28;20540;-76
2023/02/28 00:54:20;;;;;;;5.50;3.43;;;;;;;-1.89;72.92;150890.19;5030023;28;20405;-76
2023/02/28 00:56:47;;;;;;;3.80;2.40;;;;;;;-2.00;73.78;150863.28;5018577;28;20443;-76
2023/02/28 00:59:15;;;;;;;3.47;2.67;;;;;;;-2.02;74.38;150856.88;5016716;28;20458;-76
2023/02/28 01:01:42;;;;;;;2.60;2.17;;;;;;;-1.99;74.12;150864.56;5012315;28;20475;-76
2023/02/28 01:04:10;;;;;;;4.13;3.03;;;;;;;-2.05;74.70;150849.19;5008852;28;20416;-76
2023/02/28 01:06:37;;;;;;;3.07;2.77;;;;;;;-2.05;74.77;150849.19;5037339;28;20880;-76
2023/02/28 01:09:04;;;;;;;3.90;3.33;;;;;;;-1.98;74.29;150868.38;5043429;28;20443;-76
2023/02/28 01:11:32;;;;;;;3.53;2.93;;;;;;;-2.04;74.84;150851.78;5029522;28;20446;-76
2023/02/28 01:13:58;;;;;;;3.53;2.57;;;;;;;-2.05;75.43;150849.19;5012826;28;20455;-76
2023/02/28 01:16:25;;;;;;;4.40;3.30;;;;;;;-2.04;75.08;150851.78;5007638;28;20452;-76
2023/02/28 01:18:52;;;;;;;3.97;3.27;;;;;;;-2.00;75.35;150863.28;5025702;28;20510;-76
2023/02/28 01:21:21;;;;;;;3.27;2.37;;;;;;;-2.00;75.05;150862.00;5009344;28;20467;-76
2023/02/28 01:23:49;;;;;;;5.03;3.50;;;;;;;-2.06;75.58;150846.59;5022882;28;21027;-76
2023/02/28 01:26:17;;;;;;;4.10;3.10;;;;;;;-2.08;75.97;150841.50;5062046;28;20824;-76
2023/02/28 01:28:44;;;;;;;4.30;3.70;;;;;;;-2.05;76.03;150849.19;5026324;28;20481;-76
2023/02/28 01:31:11;;;;;;;5.03;3.57;;;;;;;-1.99;76.53;150864.56;5046006;28;20458;-76
2023/02/28 01:33:39;;;;;;;4.20;2.87;;;;;;;-2.01;76.29;150859.41;5021858;28;20440;-76
2023/02/28 01:36:07;;;;;;;3.50;3.10;;;;;;;-2.06;76.11;150846.59;5015860;28;20452;-76
2023/02/28 01:38:37;;;;;;;3.83;2.70;;;;;;;-2.05;77.01;150849.19;5007499;28;20469;-76
2023/02/28 01:41:04;;;;;;;4.53;3.13;;;;;;;-2.10;77.05;150836.38;5010842;28;20808;-76
2023/02/28 01:43:54;;;;;;;3.00;2.70;;;;;;;-2.11;77.14;150833.81;5011499;28;20475;-76
2023/02/28 01:46:21;;;;;;;4.20;3.13;;;;;;;-2.14;77.92;150826.13;5002610;28;20477;-75
2023/02/28 01:48:50;;;;;;;3.37;2.53;;;;;;;-2.17;78.21;150819.72;5044124;28;20485;-76
2023/02/28 01:51:20;;;;;;;3.90;3.50;;;;;;;-2.23;78.41;150803.09;5006316;28;20810;-76
2023/02/28 01:53:52;;;;;;;2.87;2.40;;;;;;;-2.23;78.05;150803.09;5007762;28;20553;-76
2023/02/28 01:56:22;;;;;;;5.20;3.70;;;;;;;-2.19;78.50;150813.31;5022480;28;20466;-76
2023/02/28 01:58:50;;;;;;;3.97;3.30;;;;;;;-2.17;78.24;150819.72;5012439;28;20450;-76
2023/02/28 02:01:21;;;;;;;6.37;3.17;;;;;;;-2.16;78.41;150821.00;5011219;28;20479;-75
2023/02/28 02:03:55;;;;;;;5.83;3.53;;;;;;;-2.15;78.66;150823.59;5002077;28;21005;-76
2023/02/28 02:06:22;;;;;;;5.47;3.33;;;;;;;-2.21;79.52;150809.50;5012873;28;20638;-76
2023/02/28 02:08:52;;;;;;;3.97;3.43;;;;;;;-2.17;79.05;150818.47;5027336;28;20435;-76
2023/02/28 02:11:20;;;;;;;4.73;3.77;;;;;;;-2.19;79.27;150814.59;5039156;28;20449;-76
2023/02/28 02:14:01;;;;;;;4.80;3.77;;;;;;;-2.11;79.54;150835.09;5007146;28;20519;-76
2023/02/28 02:16:37;;;;;;;6.77;3.40;;;;;;;-2.11;79.76;150835.09;5016947;28;20511;-76
2023/02/28 02:19:17;;;;;;;5.50;3.80;;;;;;;-2.10;79.87;150836.38;5019330;28;20456;-76
2023/02/28 02:22:28;;;;;;;4.80;3.63;;;;;;;-2.18;80.36;150815.91;5020696;28;20474;-76
2023/02/28 02:25:13;;;;;;;6.07;3.13;;;;;;;-2.15;80.32;150824.88;5021209;28;20456;-76
2023/02/28 02:27:54;;;;;;;4.33;3.77;;;;;;;-2.17;80.04;150819.72;5017613;28;20493;-90
2023/02/28 02:30:49;;;;;;;4.77;3.57;;;;;;;-2.14;80.62;150826.13;5026544;28;20484;-90
2023/02/28 02:33:29;;;;;;;4.17;3.77;;;;;;;-2.11;80.73;150835.09;5054344;28;20433;-90
2023/02/28 02:36:01;;;;;;;4.13;3.40;;;;;;;-2.11;80.14;150833.81;5018554;28;21205;-90
2023/02/28 02:38:34;;;;;;;5.60;3.83;;;;;;;-2.12;80.92;150831.28;5068412;28;20445;-89
2023/02/28 02:41:07;;;;;;;5.70;3.40;;;;;;;-2.11;80.99;150833.81;5034936;28;20474;-90
2023/02/28 02:43:36;;;;;;;5.10;3.67;;;;;;;-2.14;81.50;150826.13;5034881;28;20477;-90
2023/02/28 02:46:05;;;;;;;5.23;3.80;;;;;;;-2.17;81.76;150818.47;5010133;28;20462;-89
2023/02/28 02:48:35;;;;;;;3.53;3.07;;;;;;;-2.17;81.78;150818.47;5013749;28;20447;-90
2023/02/28 02:51:11;;;;;;;4.17;3.30;;;;;;;-2.14;81.58;150826.13;5040198;28;20549;-89
2023/02/28 02:53:43;;;;;;;5.83;3.60;;;;;;;-2.08;81.77;150841.50;5035292;28;20447;-90
2023/02/28 02:56:10;;;;;;;4.13;3.73;;;;;;;-2.12;82.17;150832.50;5017811;28;20454;-89
2023/02/28 02:58:41;;;;;;;4.50;3.47;;;;;;;-2.21;82.39;150808.19;5032547;28;20455;-88
2023/02/28 03:01:10;;;;;;;3.20;2.80;;;;;;;-2.21;82.83;150809.50;5018403;28;20475;-89
2023/02/28 03:03:37;;;;;;;4.73;3.73;;;;;;;-2.12;82.72;150831.28;5028352;28;22347;-90
2023/02/28 03:06:05;;;;;;;5.27;3.67;;;;;;;-2.13;83.12;150828.69;5017772;28;20458;-90
2023/02/28 03:08:35;;;;;;;4.73;4.00;;;;;;;-2.07;82.30;150845.38;5053810;28;20503;-90
2023/02/28 03:11:04;;;;;;;4.30;3.40;;;;;;;-2.10;83.03;150836.38;5051770;28;21001;-90
2023/02/28 03:13:51;;;;;;;5.90;4.17;;;;;;;-2.05;82.81;150850.47;5032877;28;20463;-89
2023/02/28 03:16:32;;;;;;;6.63;4.93;;;;;;;-2.03;83.20;150854.31;5028563;28;20485;-90
2023/02/28 03:19:04;;;;;;;5.37;4.40;;;;;;;-2.04;82.64;150851.78;5031918;28;20458;-89
2023/02/28 03:21:39;;;;;;;5.57;4.73;;;;;;;-2.02;83.30;150856.88;5004193;28;20847;-90
2023/02/28 03:24:07;;;;;;;4.20;3.30;;;;;;;-2.00;82.86;150862.00;5029375;28;20449;-89
2023/02/28 03:26:35;;;;;;;5.30;3.70;;;;;;;-2.01;83.16;150859.41;5006811;28;20459;-89
2023/02/28 03:29:05;;;;;;;6.10;4.13;;;;;;;-2.03;84.07;150855.59;5026114;28;20450;-90
2023/02/28 03:31:37;;;;;;;5.27;4.33;;;;;;;-1.99;83.44;150864.56;5033205;28;20532;-90
2023/02/28 03:34:07;;;;;;;5.00;4.23;;;;;;;-2.07;83.52;150845.38;5049160;28;20458;-90
2023/02/28 03:36:43;;;;;;;6.17;4.40;;;;;;;-1.96;83.92;150873.50;5033917;28;20466;-89
2023/02/28 03:39:14;;;;;;;5.60;4.10;;;;;;;-1.99;84.57;150864.56;4997652;28;20435;-90
2023/02/28 03:41:44;;;;;;;4.60;3.70;;;;;;;-1.99;84.00;150865.84;5013838;28;20502;-90
2023/02/28 03:44:15;;;;;;;6.13;4.40;;;;;;;-1.96;84.49;150872.25;5017361;28;20509;-89
2023/02/28 03:46:47;;;;;;;6.20;4.60;;;;;;;-1.94;84.43;150877.38;5017087;28;20464;-90
2023/02/28 03:49:18;;;;;;;5.93;4.30;;;;;;;-1.98;84.66;150867.09;5015540;28;20548;-89
2023/02/28 03:51:47;;;;;;;5.80;4.30;;;;;;;-2.00;84.33;150862.00;5016765;28;20454;-89
2023/02/28 03:54:18;;;;;;;5.50;4.07;;;;;;;-1.93;84.20;150879.91;5033749;28;20850;-90
2023/02/28 03:56:49;;;;;;;5.37;3.93;;;;;;;-1.89;84.72;150890.19;5017124;28;20519;-90
2023/02/28 03:59:19;;;;;;;5.07;3.57;;;;;;;-2.00;84.53;150862.00;5032042;28;20542;-90
2023/02/28 04:01:47;;;;;;;5.17;3.93;;;;;;;-1.94;84.72;150877.38;5044190;28;20593;-90
2023/02/28 04:04:14;;;;;;;5.97;4.37;;;;;;;-1.98;84.40;150868.38;5067044;28;20453;-89
2023/02/28 04:06:41;;;;;;;6.60;4.67;;;;;;;-2.00;84.80;150863.28;5015667;28;20505;-89
2023/02/28 04:09:11;;;;;;;5.27;4.27;;;;;;;-1.90;85.01;150887.59;5015481;28;20447;-90
2023/02/28 04:11:39;;;;;;;6.37;4.50;;;;;;;-1.99;85.79;150864.56;5011213;28;20955;-89
2023/02/28 04:14:07;;;;;;;6.60;4.67;;;;;;;-1.98;84.86;150868.38;5016917;28;21222;-89
2023/02/28 04:16:35;;;;;;;5.47;4.50;;;;;;;-1.96;85.27;150872.25;5031669;28;20466;-89
2023/02/28 04:19:03;;;;;;;6.60;4.43;;;;;;;-1.90;84.64;150888.88;5012787;28;20510;-89
2023/02/28 04:21:30;;;;;;;6.50;4.13;;;;;;;-1.88;84.55;150894.00;5020645;28;20481;-89
2023/02/28 04:24:00;;;;;;;5.10;3.63;;;;;;;-1.93;85.17;150879.91;5023469;28;21330;-89
2023/02/28 04:26:30;;;;;;;7.53;4.60;;;;;;;-1.94;85.28;150877.38;5012248;28;20862;-89
2023/02/28 04:28:57;;;;;;;7.63;4.83;;;;;;;-1.93;84.99;150879.91;5032872;28;20814;-89
2023/02/28 04:31:24;;;;;;;6.40;4.47;;;;;;;-1.95;85.33;150876.09;5015918;28;20451;-89
2023/02/28 04:33:51;;;;;;;5.83;4.77;;;;;;;-1.92;85.72;150882.50;5031784;28;20493;-90
2023/02/28 04:36:18;;;;;;;6.17;4.87;;;;;;;-1.99;85.84;150864.56;5035014;28;20458;-88
2023/02/28 04:38:45;;;;;;;6.90;4.87;;;;;;;-1.81;85.23;150909.38;5026829;28;20532;-89
2023/02/28 04:41:12;;;;;;;6.60;5.00;;;;;;;-1.90;85.38;150887.59;5018084;28;20559;-89
2023/02/28 04:43:40;;;;;;;6.03;3.87;;;;;;;-1.78;85.31;150917.09;5014686;28;20484;-89
2023/02/28 04:46:08;;;;;;;6.00;4.70;;;;;;;-1.79;85.16;150915.78;5034231;28;20481;-90
2023/02/28 04:48:37;;;;;;;7.00;4.83;;;;;;;-2.00;86.39;150862.00;5014593;28;20443;-89
2023/02/28 04:51:05;;;;;;;5.50;4.00;;;;;;;-1.79;85.76;150914.50;5059248;28;20459;-90
2023/02/28 04:53:31;;;;;;;5.40;4.47;;;;;;;-1.82;85.91;150908.09;5031304;28;20490;-89
2023/02/28 04:55:59;;;;;;;5.17;4.30;;;;;;;-1.77;85.54;150920.91;5022241;28;20456;-90
2023/02/28 04:58:26;;;;;;;5.60;3.67;;;;;;;-1.93;86.60;150879.91;5041581;28;20940;-90
2023/02/28 05:00:55;;;;;;;5.53;4.50;;;;;;;-1.73;85.51;150929.88;5012392;28;20529;-89
2023/02/28 05:03:22;;;;;;;7.77;5.33;;;;;;;-1.78;85.83;150917.09;5029225;28;20496;-89
2023/02/28 05:05:49;;;;;;;7.90;4.50;;;;;;;-1.66;85.37;150949.09;5032341;28;20476;-90
2023/02/28 05:08:15;;;;;;;6.53;4.30;;;;;;;-1.76;86.20;150923.47;5033627;28;20538;-89
2023/02/28 05:10:42;;;;;;;6.80;4.73;;;;;;;-1.82;86.69;150908.09;5021077;28;20553;-89
2023/02/28 05:13:11;;;;;;;6.03;4.80;;;;;;;-1.73;86.27;150931.19;5012653;28;20545;-89
2023/02/28 05:15:38;;;;;;;4.97;3.87;;;;;;;-1.69;86.64;150940.13;5028877;28;20491;-89
2023/02/28 05:18:06;;;;;;;9.07;5.17;;;;;;;-1.77;86.92;150919.66;5041039;28;20449;-89
2023/02/28 05:20:33;;;;;;;5.63;4.50;;;;;;;-1.72;86.22;150933.72;5012987;28;21012;-90
2023/02/28 05:23:00;;;;;;;7.40;4.87;;;;;;;-1.75;86.48;150924.78;5032198;28;20480;-89
2023/02/28 05:25:27;;;;;;;6.60;4.50;;;;;;;-1.74;87.11;150927.31;5015099;28;20454;-89
2023/02/28 05:27:54;;;;;;;5.20;4.30;;;;;;;-1.73;86.84;150929.88;5031676;28;20451;-89
2023/02/28 05:30:21;;;;;;;7.13;5.30;;;;;;;-1.94;88.40;150878.66;5012497;28;20497;-89
2023/02/28 05:32:52;;;;;;;6.93;4.73;;;;;;;-1.80;87.18;150913.22;5046366;28;20527;-89
2023/02/28 05:35:20;;;;;;;6.83;4.50;;;;;;;-1.77;87.15;150920.91;5015443;28;20463;-89
2023/02/28 05:37:46;;;;;;;8.60;5.50;;;;;;;-1.81;87.81;150909.38;5029072;28;20455;-88
2023/02/28 05:40:14;;;;;;;8.00;5.23;;;;;;;-1.71;87.92;150935.00;5035024;28;20462;-89
2023/02/28 05:42:41;;;;;;;8.60;5.43;;;;;;;-1.74;87.58;150927.31;5028979;28;20574;-89
2023/02/28 05:45:08;;;;;;;7.50;5.33;;;;;;;-1.70;87.41;150937.59;5013692;28;20463;-89
2023/02/28 05:47:35;;;;;;;7.20;4.30;;;;;;;-1.71;87.03;150935.00;5024890;28;20454;-87
2023/02/28 05:50:02;;;;;;;9.00;4.80;;;;;;;-1.68;87.71;150942.69;5008155;28;20489;-88
2023/02/28 05:52:30;;;;;;;4.83;4.33;;;;;;;-1.71;86.94;150936.28;5035063;28;20448;-89
2023/02/28 05:54:57;;;;;;;9.07;5.63;;;;;;;-1.74;87.02;150927.31;5010143;28;20475;-88
2023/02/28 05:57:24;;;;;;;7.97;5.73;;;;;;;-1.63;87.68;150956.78;5026729;28;20521;-88
2023/02/28 05:59:55;;;;;;;8.27;5.50;;;;;;;-1.56;87.56;150974.72;5034885;28;20451;-88
2023/02/28 06:02:21;;;;;;;6.73;5.60;;;;;;;-1.67;87.98;150945.28;5026812;28;20467;-88
2023/02/28 06:04:51;;;;;;;6.73;5.43;;;;;;;-1.54;87.26;150978.59;5013939;28;20543;-88
2023/02/28 06:07:18;;;;;;;6.87;5.20;;;;;;;-1.60;87.68;150963.19;5043424;28;20451;-88
2023/02/28 06:09:46;;;;;;;8.23;4.83;;;;;;;-1.58;88.01;150969.59;5009596;28;20933;-88
2023/02/28 06:12:12;;;;;;;7.30;5.70;;;;;;;-1.65;87.86;150951.69;5015198;28;21551;-88
2023/02/28 06:14:39;;;;;;;8.67;6.07;;;;;;;-1.63;87.72;150955.50;5012817;28;20451;-88
2023/02/28 06:17:06;;;;;;;6.60;4.40;;;;;;;-1.54;87.73;150979.88;5045140;28;20458;-88
2023/02/28 06:19:33;;;;;;;7.13;5.37;;;;;;;-1.63;88.10;150956.78;5050474;28;20461;-87
2023/02/28 06:22:00;;;;;;;6.17;4.97;;;;;;;-1.69;88.03;150940.13;5029552;28;20474;-88
2023/02/28 06:24:28;;;;;;;9.37;5.80;;;;;;;-1.71;88.59;150936.28;5013424;28;20808;-88
2023/02/28 06:26:58;;;;;;;4.53;3.43;;;;;;;-1.69;87.64;150941.41;5032789;28;20454;-88
2023/02/28 06:29:25;;;;;;;9.13;5.60;;;;;;;-1.71;87.43;150935.00;5027839;28;20455;-88
2023/02/28 06:31:52;;;;;;;9.33;5.77;;;;;;;-1.68;87.40;150942.69;5021893;28;20950;-88
2023/02/28 06:34:19;;;;;;;9.67;6.37;;;;;;;-1.69;87.17;150941.41;5030289;28;20473;-88
2023/02/28 06:36:45;;;;;;;7.93;5.83;;;;;;;-1.64;86.65;150954.22;5045213;28;20550;-88
2023/02/28 06:39:12;;;;;;;7.93;5.30;;;;;;;-1.59;86.62;150967.03;5026480;28;20489;-88
2023/02/28 06:41:39;;;;;;;11.50;6.47;;;;;;;-1.59;85.90;150967.03;5006376;28;20452;-87
2023/02/28 06:44:12;;;;;;;8.27;4.87;;;;;;;-1.58;85.96;150969.59;5046782;28;20499;-88
2023/02/28 06:46:39;;;;;;;7.73;5.83;;;;;;;-1.62;85.65;150959.38;5032643;28;20463;-88
2023/02/28 06:49:08;;;;;;;8.13;6.00;;;;;;;-1.53;85.77;150982.41;5046058;28;20895;-87
2023/02/28 06:51:36;;;;;;;10.87;6.33;;;;;;;-1.50;85.92;150990.09;5016223;28;20983;-87
2023/02/28 06:54:02;;;;;;;8.50;6.53;;;;;;;-1.51;85.27;150987.53;5051104;28;20456;-87
2023/02/28 06:56:29;;;;;;;9.63;6.40;;;;;;;-1.45;85.17;151002.91;5032653;28;20804;-88
2023/02/28 06:58:56;;;;;;;9.77;6.60;;;;;;;-1.55;84.98;150977.28;5024462;28;20537;-88
2023/02/28 07:01:24;;;;;;;5.53;4.17;;;;;;;-1.48;84.31;150995.22;5015808;28;20464;-88
2023/02/28 07:03:52;;;;;;;8.27;5.83;;;;;;;-1.46;85.18;150999.09;5025907;28;20463;-88
2023/02/28 07:06:18;;;;;;;5.70;3.70;;;;;;;-1.45;84.89;151001.63;5010215;28;20999;-87
2023/02/28 07:08:45;;;;;;;7.87;6.20;;;;;;;-1.51;85.34;150987.53;5043752;28;21146;-88
2023/02/28 07:11:12;;;;;;;8.23;6.13;;;;;;;-1.48;84.91;150995.22;5028271;28;20463;-88
2023/02/28 07:13:38;;;;;;;9.77;6.70;;;;;;;-1.39;84.53;151018.31;5028911;28;20541;-76
2023/02/28 07:16:08;;;;;;;6.97;5.40;;;;;;;-1.35;84.00;151028.53;5026683;28;20473;-77
2023/02/28 07:18:37;;;;;;;10.40;5.50;;;;;;;-1.36;84.25;151026.00;5058052;28;20537;-76
2023/02/28 07:21:04;;;;;;;9.13;5.60;;;;;;;-1.44;83.96;151004.22;5044312;28;20450;-76
2023/02/28 07:23:31;;;;;;;10.00;6.47;;;;;;;-1.45;85.12;151002.91;5025326;28;20475;-76
2023/02/28 07:25:58;;;;;;;11.27;6.00;;;;;;;-1.55;84.96;150976.00;5042085;28;20536;-77
2023/02/28 07:28:25;;;;;;;7.87;4.67;;;;;;;-1.24;83.20;151056.75;5023416;28;20427;-77
2023/02/28 07:30:51;;;;;;;9.17;6.23;;;;;;;-1.23;83.21;151059.34;5019265;28;20452;-77
2023/02/28 07:33:18;;;;;;;5.33;4.23;;;;;;;-1.36;83.07;151024.72;5027009;28;20477;-77
2023/02/28 07:35:46;;;;;;;9.83;7.17;;;;;;;-1.48;84.29;150993.94;5042949;28;20883;-77
2023/02/28 07:38:13;;;;;;;10.73;7.33;;;;;;;-1.25;83.24;151054.22;5022931;28;20452;-77
2023/02/28 07:40:40;;;;;;;7.00;6.20;;;;;;;-1.25;82.90;151052.91;5038886;28;20467;-79
2023/02/28 07:43:07;;;;;;;10.73;5.80;;;;;;;-1.37;83.56;151023.44;5027437;28;20582;-77
2023/02/28 07:45:34;;;;;;;9.60;6.90;;;;;;;-1.32;83.28;151036.22;5024141;28;20446;-76
2023/02/28 07:48:02;;;;;;;10.23;6.57;;;;;;;-1.19;82.57;151067.03;5008857;28;20456;-77
2023/02/28 07:50:30;;;;;;;9.10;6.43;;;;;;;-1.30;83.84;151041.34;5028106;28;20463;-76
2023/02/28 07:52:58;;;;;;;9.77;6.87;;;;;;;-1.33;83.00;151033.69;5025661;28;20447;-76
2023/02/28 07:55:25;;;;;;;8.60;6.77;;;;;;;-1.23;83.30;151059.34;5019964;28;20458;-77
2023/02/28 07:57:51;;;;;;;10.30;6.80;;;;;;;-1.24;82.25;151055.44;5007232;28;20456;-76
2023/02/28 08:00:19;;;;;;;13.57;6.60;;;;;;;-1.14;82.63;151079.84;5041593;28;20553;-76
2023/02/28 08:02:45;;;;;;;11.17;7.93;;;;;;;-1.09;81.93;151092.66;5005840;28;20567;-76
2023/02/28 08:05:12;;;;;;;9.70;6.73;;;;;;;-1.04;82.25;151105.47;5022257;28;20458;-76
2023/02/28 08:07:39;;;;;;;9.60;7.00;;;;;;;-1.14;82.01;151079.84;5041496;28;20554;-77
2023/02/28 08:10:09;;;;;;;9.20;7.17;;;;;;;-1.11;82.99;151087.53;5004082;28;20563;-76
2023/02/28 08:12:36;;;;;;;10.60;6.77;;;;;;;-1.12;81.83;151084.97;5024154;28;20451;-76
2023/02/28 08:15:03;;;;;;;11.13;6.67;;;;;;;-1.16;82.20;151075.97;5039420;28;20936;-76
2023/02/28 08:17:30;;;;;;;11.00;6.60;;;;;;;-1.13;82.08;151082.38;5042152;28;20456;-76
2023/02/28 08:19:56;;;;;;;5.40;4.60;;;;;;;-1.13;82.27;151083.66;5024022;28;21048;-76
2023/02/28 08:22:23;;;;;;;8.40;6.07;;;;;;;-1.12;82.52;151084.97;5037047;28;20472;-76
2023/02/28 08:24:50;;;;;;;6.80;5.57;;;;;;;-1.03;81.85;151108.06;5023940;28;20458;-76
2023/02/28 08:27:18;;;;;;;7.97;6.67;;;;;;;-1.11;82.84;151087.53;5041621;28;20498;-77
2023/02/28 08:29:44;;;;;;;9.67;6.97;;;;;;;-1.05;82.34;151102.88;5035565;28;21058;-76
2023/02/28 08:32:11;;;;;;;10.77;7.00;;;;;;;-1.08;82.30;151096.47;5020796;28;20462;-76
2023/02/28 08:34:40;;;;;;;11.30;7.70;;;;;;;-1.06;82.37;151100.34;5018263;28;20797;-77
2023/02/28 08:37:06;;;;;;;12.10;7.60;;;;;;;-1.05;81.95;151102.88;5047298;28;20447;-77
2023/02/28 08:39:35;;;;;;;9.90;6.77;;;;;;;-1.01;81.89;151113.16;5019938;28;20463;-77
2023/02/28 08:42:02;;;;;;;9.30;7.10;;;;;;;-0.91;81.80;151138.78;5039268;28;20452;-76
2023/02/28 08:44:30;;;;;;;8.93;7.67;;;;;;;-1.02;81.24;151110.59;5005312;28;20938;-76
2023/02/28 08:46:57;;;;;;;8.73;6.13;;;;;;;-1.01;81.81;151113.16;5021383;28;21042;-77
2023/02/28 08:49:24;;;;;;;10.60;7.43;;;;;;;-1.02;81.69;151110.59;4998862;28;20922;-77
2023/02/28 08:51:51;;;;;;;8.13;5.83;;;;;;;-0.97;81.52;151123.41;4997329;28;20478;-76
2023/02/28 08:54:19;;;;;;;10.60;7.80;;;;;;;-1.14;82.83;151081.13;5003668;28;20480;-76
2023/02/28 08:56:46;;;;;;;10.60;7.43;;;;;;;-0.91;81.46;151138.78;5019825;28;20456;-77
2023/02/28 08:59:12;;;;;;;9.67;7.07;;;;;;;-0.82;81.41;151161.91;5018045;28;20456;-76
2023/02/28 09:01:43;;;;;;;11.00;6.93;;;;;;;-0.83;80.84;151159.31;5020684;28;20483;-76
2023/02/28 09:04:11;;;;;;;9.93;6.83;;;;;;;-0.94;80.66;151132.38;5020942;28;20564;-76
2023/02/28 09:06:38;;;;;;;9.80;7.17;;;;;;;-0.89;80.76;151143.91;5018792;28;20459;-76
2023/02/28 09:09:06;;;;;;;9.50;7.53;;;;;;;-0.92;80.96;151136.22;5019682;28;20456;-76
2023/02/28 09:11:33;;;;;;;11.00;6.60;;;;;;;-0.87;81.31;151149.03;5012959;28;21058;-77
2023/02/28 09:14:00;;;;;;;8.97;6.27;;;;;;;-0.85;80.15;151154.19;5021002;28;20448;-76
2023/02/28 09:16:27;;;;;;;9.90;7.80;;;;;;;-0.95;81.47;151129.81;5019434;28;20449;-76
2023/02/28 09:18:55;;;;;;;12.63;8.03;;;;;;;-0.70;80.76;151193.94;5020340;28;20461;-77
2023/02/28 09:21:22;;;;;;;12.27;7.40;;;;;;;-0.58;79.66;151223.41;5000828;28;20459;-76
2023/02/28 09:23:50;;;;;;;14.10;8.20;;;;;;;-0.91;81.06;151138.78;5003986;28;20527;-76
2023/02/28 09:26:19;;;;;;;12.63;8.13;;;;;;;-0.63;80.37;151210.59;5003109;28;20792;-76
2023/02/28 09:28:45;;;;;;;12.17;7.87;;;;;;;-0.69;79.92;151195.25;5014740;28;21011;-76
2023/02/28 09:31:14;;;;;;;10.57;7.30;;;;;;;-0.59;79.85;151219.59;5003611;28;20459;-77
2023/02/28 09:33:41;;;;;;;11.90;7.83;;;;;;;-0.72;80.76;151188.81;5019922;28;20444;-76
2023/02/28 09:36:09;;;;;;;11.80;7.30;;;;;;;-0.55;79.35;151231.13;5018889;28;20457;-76
2023/02/28 09:38:36;;;;;;;13.20;9.07;;;;;;;-0.54;79.23;151233.69;5018986;28;20455;-76
2023/02/28 09:41:09;;;;;;;9.77;6.80;;;;;;;-0.55;79.63;151231.13;5033623;28;20464;-76
2023/02/28 09:43:39;;;;;;;13.40;7.93;;;;;;;-0.28;79.02;151299.09;5017902;28;20835;-76
2023/02/28 09:46:12;;;;;;;12.53;8.17;;;;;;;-0.62;79.91;151213.19;5039344;28;20459;-76
2023/02/28 09:48:42;;;;;;;11.17;7.27;;;;;;;-0.41;79.42;151267.03;5039944;28;20801;-77
2023/02/28 09:51:17;;;;;;;13.90;7.23;;;;;;;-0.34;78.18;151284.97;5021694;28;20837;-77
2023/02/28 09:53:44;;;;;;;12.90;8.57;;;;;;;-0.61;77.97;151215.75;5040467;28;20570;-77
2023/02/28 09:56:12;;;;;;;9.23;7.40;;;;;;;-0.44;78.57;151259.34;5041731;28;20481;-77
2023/02/28 09:58:43;;;;;;;11.20;8.07;;;;;;;-0.29;78.00;151296.56;5041455;28;20490;-77
2023/02/28 10:01:13;;;;;;;12.57;8.30;;;;;;;-0.21;77.62;151317.03;5039320;28;20456;-77
2023/02/28 10:03:41;;;;;;;13.20;8.90;;;;;;;-0.16;77.42;151331.16;5030967;28;20556;-77
2023/02/28 10:06:15;;;;;;;9.73;7.07;;;;;;;-0.16;77.45;151331.16;5022243;28;20868;-76
2023/02/28 10:08:46;;;;;;;10.57;6.50;;;;;;;-0.09;76.31;151349.16;5040815;28;20452;-76
2023/02/28 10:11:16;;;;;;;13.40;8.67;;;;;;;-0.25;77.84;151306.81;5022209;28;20534;-77
2023/02/28 10:13:52;;;;;;;11.73;7.43;;;;;;;-0.10;76.90;151346.56;5024765;28;20987;-77
2023/02/28 10:16:25;;;;;;;9.37;6.80;;;;;;;0.04;75.56;151379.94;5040564;28;20935;-77
2023/02/28 10:18:59;;;;;;;12.80;8.70;;;;;;;-0.19;76.17;151323.50;5038624;28;20893;-77
2023/02/28 10:21:29;;;;;;;10.50;7.60;;;;;;;-0.21;76.21;151318.34;5036374;28;20478;-76
2023/02/28 10:24:03;;;;;;;8.90;6.73;;;;;;;-0.15;75.93;151333.75;5023111;28;20567;-77
2023/02/28 10:26:32;;;;;;;10.70;8.10;;;;;;;-0.20;76.86;151320.91;5040835;28;20460;-77
2023/02/28 10:28:58;;;;;;;12.10;8.10;;;;;;;-0.05;76.81;151359.41;5005070;28;20445;-77
2023/02/28 10:31:25;;;;;;;12.00;8.93;;;;;;;0.13;75.69;151404.34;5025684;28;20540;-76
2023/02/28 10:33:52;;;;;;;13.07;8.83;;;;;;;0.09;76.70;151392.75;5043668;28;20542;-77
2023/02/28 10:36:20;;;;;;;11.43;8.07;;;;;;;0.28;76.04;151441.53;5025124;28;20549;-76
2023/02/28 10:38:49;;;;;;;12.27;9.03;;;;;;;0.45;74.60;151485.22;5041708;28;20480;-76
2023/02/28 10:41:26;;;;;;;10.83;8.30;;;;;;;0.49;74.41;151495.44;5021296;28;20514;-77
2023/02/28 10:43:53;;;;;;;10.93;7.03;;;;;;;0.51;74.41;151501.88;5043927;28;20472;-77
2023/02/28 10:46:25;;;;;;;10.73;8.10;;;;;;;0.56;73.62;151514.69;5044383;28;20836;-76
2023/02/28 10:49:01;;;;;;;12.53;9.03;;;;;;;0.39;73.40;151471.09;5042887;28;20806;-76
2023/02/28 10:51:36;;;;;;;10.43;7.40;;;;;;;0.56;72.43;151513.41;5038870;28;20456;-77
2023/02/28 10:54:05;;;;;;;11.77;9.27;;;;;;;0.46;73.15;151487.75;5040815;28;20936;-76
2023/02/28 10:56:33;;;;;;;11.30;8.67;;;;;;;0.59;73.29;151521.13;5028074;28;20468;-76
2023/02/28 10:59:01;;;;;;;10.87;7.93;;;;;;;0.75;71.68;151560.91;5028071;28;20714;-76
2023/02/28 11:01:38;;;;;;;11.70;8.97;;;;;;;0.75;72.29;151560.91;5041462;28;20502;-76
2023/02/28 11:04:18;;;;;;;16.03;9.90;;;;;;;0.76;72.60;151564.81;5019080;28;20883;-76
2023/02/28 11:06:44;;;;;;;13.73;9.73;;;;;;;0.66;72.56;151539.13;5058758;28;20542;-77
2023/02/28 11:09:20;;;;;;;11.97;8.87;;;;;;;0.81;72.60;151577.63;5038514;28;20455;-76
2023/02/28 11:11:47;;;;;;;9.87;7.20;;;;;;;1.05;71.37;151638.00;5041144;28;20491;-76
2023/02/28 11:14:20;;;;;;;12.23;9.37;;;;;;;1.18;70.96;151672.69;5039098;28;20458;-76
2023/02/28 11:16:47;;;;;;;14.80;8.40;;;;;;;0.99;71.74;151623.84;5039092;28;20457;-77
2023/02/28 11:19:20;;;;;;;11.83;8.17;;;;;;;0.91;71.72;151603.31;5023423;28;20481;-77
2023/02/28 11:21:50;;;;;;;10.90;7.40;;;;;;;0.79;72.19;151572.50;5020260;28;20466;-76
2023/02/28 11:24:23;;;;;;;10.77;8.00;;;;;;;0.81;71.75;151577.63;5024201;28;20557;-76
2023/02/28 11:26:50;;;;;;;13.47;9.80;;;;;;;0.61;72.48;151526.25;5024246;28;20448;-76
2023/02/28 11:29:22;;;;;;;12.87;8.03;;;;;;;0.89;72.00;151598.19;5038459;28;20535;-76
2023/02/28 11:32:11;;;;;;;11.03;9.03;;;;;;;0.88;71.76;151595.59;5024514;28;20515;-76